Time;durP1;ratioP1;P1;durP2;ratioP2;P2;SDS_P1;SDS_P2;PMS_P1;PMS_P2;Temp;Humidity;BMP_temperature;BMP_pressure;BME280_temperature;BME280_humidity;BME280_pressure;Samples;Min_cycle;Max_cycle;Signal;HPM_P1;HPM_P2
2023/05/25 00:01:47;;;;;;;21.20;12.20;;;;;;;18.11;100.00;100691.85;106778;1257;60527;-89
2023/05/25 00:04:15;;;;;;;18.50;12.20;;;;;;;18.10;100.00;100693.88;106981;1256;72595;-90
2023/05/25 00:06:44;;;;;;;17.50;12.20;;;;;;;18.08;100.00;100691.59;107158;1255;64037;-91
2023/05/25 00:09:11;;;;;;;18.50;13.10;;;;;;;18.08;100.00;100695.17;106837;1255;72665;-92
2023/05/25 00:11:39;;;;;;;17.20;11.60;;;;;;;18.07;100.00;100699.80;106786;1255;62007;-91
2023/05/25 00:14:07;;;;;;;15.20;11.90;;;;;;;18.07;100.00;100702.45;107664;1255;60319;-88
2023/05/25 00:16:36;;;;;;;15.50;11.60;;;;;;;18.07;100.00;100705.86;107550;1256;72762;-90
2023/05/25 00:19:04;;;;;;;17.70;12.00;;;;;;;18.06;100.00;100705.95;107421;1257;64051;-91
2023/05/25 00:21:38;;;;;;;16.10;12.00;;;;;;;18.03;100.00;100707.96;108043;1255;72766;-88
2023/05/25 00:24:24;;;;;;;17.90;11.30;;;;;;;18.01;100.00;100709.40;109366;1255;62334;-91
2023/05/25 00:27:11;;;;;;;25.60;20.40;;;;;;;18.02;100.00;100712.28;108894;1255;62574;-88
2023/05/25 00:29:38;;;;;;;18.80;13.30;;;;;;;18.04;100.00;100709.66;108423;1257;72490;-88
2023/05/25 00:32:07;;;;;;;19.50;13.20;;;;;;;18.07;100.00;100711.68;107044;1256;62779;-90
2023/05/25 00:34:36;;;;;;;18.50;12.50;;;;;;;18.10;100.00;100711.63;107077;1255;71174;-88
2023/05/25 00:37:03;;;;;;;21.40;14.80;;;;;;;18.11;100.00;100711.85;106784;1257;60796;-88
2023/05/25 00:39:31;;;;;;;22.10;13.20;;;;;;;18.14;100.00;100709.14;107049;1254;60558;-88
2023/05/25 00:41:58;;;;;;;19.00;12.60;;;;;;;18.17;100.00;100706.32;107186;1261;72593;-90
2023/05/25 00:44:25;;;;;;;20.20;14.70;;;;;;;18.19;100.00;100703.55;107440;1256;63788;-88
2023/05/25 00:46:52;;;;;;;26.50;16.50;;;;;;;18.21;100.00;100698.72;107221;1264;71421;-91
2023/05/25 00:49:21;;;;;;;18.00;13.70;;;;;;;18.25;100.00;100690.45;106645;1256;60299;-90
2023/05/25 00:51:49;;;;;;;20.80;16.30;;;;;;;18.27;100.00;100691.12;106683;1258;60371;-91
2023/05/25 00:55:59;;;;;;;18.70;14.00;;;;;;;18.32;100.00;100691.77;105714;1290;600056;-87
2023/05/25 00:58:27;;;;;;;20.30;15.10;;;;;;;18.29;100.00;100691.15;109124;1257;61188;-90
2023/05/25 01:00:56;;;;;;;23.20;15.40;;;;;;;18.23;100.00;100690.77;109002;1264;58938;-90
2023/05/25 01:03:27;;;;;;;26.10;17.10;;;;;;;18.20;100.00;100693.48;106754;1258;70894;-91
2023/05/25 01:05:56;;;;;;;26.50;17.30;;;;;;;18.21;100.00;100698.55;106659;1257;62427;-90
2023/05/25 01:08:26;;;;;;;23.20;15.50;;;;;;;18.25;100.00;100694.46;105879;1263;832703;-90
2023/05/25 01:10:54;;;;;;;21.10;16.00;;;;;;;18.29;100.00;100695.73;106753;1259;61706;-92
2023/05/25 01:13:22;;;;;;;21.60;16.30;;;;;;;18.32;100.00;100696.87;106564;1254;60229;-91
2023/05/25 01:15:49;;;;;;;22.90;15.20;;;;;;;18.34;100.00;100696.51;106328;1254;72324;-88
2023/05/25 01:18:17;;;;;;;22.20;14.90;;;;;;;18.34;100.00;100694.89;106589;1254;63764;-90
2023/05/25 01:21:12;;;;;;;17.40;14.10;;;;;;;18.34;100.00;100698.85;106731;1255;71116;-90
2023/05/25 01:24:02;;;;;;;21.00;14.80;;;;;;;18.27;100.00;100697.66;106480;1255;60469;-91
2023/05/25 01:26:34;;;;;;;21.10;15.20;;;;;;;18.18;100.00;100699.14;106353;1260;59562;-89
2023/05/25 01:29:01;;;;;;;21.10;13.90;;;;;;;18.14;100.00;100699.02;106651;1254;71897;-91
2023/05/25 01:31:29;;;;;;;20.60;15.70;;;;;;;18.12;100.00;100698.69;106807;1254;63768;-90
2023/05/25 01:33:57;;;;;;;21.30;16.00;;;;;;;18.10;100.00;100697.79;107072;1255;71470;-89
2023/05/25 01:36:25;;;;;;;21.80;15.00;;;;;;;18.03;100.00;100694.75;108084;1254;61775;-90
2023/05/25 01:38:53;;;;;;;17.40;14.10;;;;;;;17.94;100.00;100699.73;107479;1254;60224;-90
2023/05/25 01:41:21;;;;;;;17.30;12.80;;;;;;;17.87;100.00;100697.24;106409;1251;71996;-87
2023/05/25 01:43:49;;;;;;;18.40;13.00;;;;;;;17.83;100.00;100699.71;106617;1256;62579;-91
2023/05/25 01:46:25;;;;;;;14.60;11.40;;;;;;;17.79;100.00;100699.51;106433;1253;71286;-90
2023/05/25 01:49:11;;;;;;;19.40;12.50;;;;;;;17.76;100.00;100693.70;106436;1253;60468;-92
2023/05/25 01:52:27;;;;;;;18.40;12.90;;;;;;;17.77;100.00;100686.59;106948;1251;59708;-90
2023/05/25 01:55:06;;;;;;;20.60;12.60;;;;;;;17.78;100.00;100686.10;108414;1253;73920;-91
2023/05/25 01:57:40;;;;;;;18.90;13.00;;;;;;;17.78;100.00;100687.91;109227;1251;62218;-90
2023/05/25 02:00:10;;;;;;;15.80;11.70;;;;;;;17.77;100.00;100686.41;109327;1253;71437;-89
2023/05/25 02:02:44;;;;;;;18.30;11.90;;;;;;;17.78;100.00;100688.26;109506;1252;60629;-91
2023/05/25 02:05:12;;;;;;;18.20;13.40;;;;;;;17.79;100.00;100693.98;108821;1258;59241;-91
2023/05/25 02:07:40;;;;;;;21.80;12.80;;;;;;;17.78;100.00;100693.91;106987;1253;75757;-92
2023/05/25 02:10:08;;;;;;;15.20;12.60;;;;;;;17.75;100.00;100693.61;107397;1253;61931;-91
2023/05/25 02:12:36;;;;;;;19.20;13.70;;;;;;;17.73;100.00;100693.61;108689;1253;71149;-89
2023/05/25 02:15:04;;;;;;;15.40;11.40;;;;;;;17.74;100.00;100693.17;108115;1252;63151;-92
2023/05/25 02:17:31;;;;;;;16.70;11.00;;;;;;;17.74;100.00;100695.52;107220;1253;60232;-92
2023/05/25 02:20:00;;;;;;;15.70;11.80;;;;;;;17.73;100.00;100700.03;107372;1252;74047;-89
2023/05/25 02:22:27;;;;;;;17.50;11.10;;;;;;;17.71;100.00;100702.30;107357;1253;64960;-92
2023/05/25 02:24:56;;;;;;;18.30;11.70;;;;;;;17.72;100.00;100702.45;108167;1252;73282;-88
2023/05/25 02:27:24;;;;;;;15.70;10.50;;;;;;;17.68;100.00;100701.46;108011;1253;61507;-90
2023/05/25 02:29:52;;;;;;;19.90;11.50;;;;;;;17.65;100.00;100702.86;107470;1253;60153;-91
2023/05/25 02:32:20;;;;;;;19.90;11.50;;;;;;;17.66;100.00;100707.18;106795;1253;71872;-91
2023/05/25 02:34:48;;;;;;;19.90;12.10;;;;;;;17.70;100.00;100710.23;106618;1253;62991;-90
2023/05/25 02:37:16;;;;;;;20.40;12.10;;;;;;;17.72;100.00;100716.89;106454;1254;73576;-90
2023/05/25 02:39:44;;;;;;;24.50;13.70;;;;;;;17.72;100.00;100714.79;107060;1256;61756;-91
2023/05/25 02:42:13;;;;;;;20.40;13.20;;;;;;;17.73;100.00;100716.79;106236;1260;60303;-90
2023/05/25 02:44:46;;;;;;;22.30;11.70;;;;;;;17.76;100.00;100721.15;106556;1253;73255;-90
2023/05/25 02:47:15;;;;;;;20.80;12.20;;;;;;;17.75;100.00;100722.08;107165;1256;61996;-91
2023/05/25 02:49:44;;;;;;;18.30;12.70;;;;;;;17.74;100.00;100722.38;107256;1251;72906;-91
2023/05/25 02:52:12;;;;;;;17.90;13.50;;;;;;;17.76;100.00;100718.71;107030;1252;60499;-90
2023/05/25 02:54:40;;;;;;;22.40;12.70;;;;;;;17.78;100.00;100713.39;106910;1257;61098;-92
2023/05/25 02:57:09;;;;;;;26.80;14.90;;;;;;;17.79;100.00;100718.73;106850;1258;72134;-91
2023/05/25 02:59:37;;;;;;;25.40;15.50;;;;;;;17.78;100.00;100723.74;106793;1258;65630;-91
2023/05/25 03:02:05;;;;;;;24.60;12.60;;;;;;;17.76;100.00;100723.49;108171;1251;71748;-88
2023/05/25 03:04:36;;;;;;;22.80;13.00;;;;;;;17.77;100.00;100725.62;108396;1251;62703;-90
2023/05/25 03:07:04;;;;;;;22.20;13.80;;;;;;;17.76;100.00;100726.27;108164;1251;61054;-89
2023/05/25 03:09:32;;;;;;;25.20;14.30;;;;;;;17.78;100.00;100729.45;107014;1254;73661;-89
2023/05/25 03:12:02;;;;;;;27.00;14.90;;;;;;;17.87;100.00;100737.04;106508;1253;62517;-91
2023/05/25 03:14:30;;;;;;;25.40;15.10;;;;;;;17.94;100.00;100734.98;107258;1253;72465;-88
2023/05/25 03:17:02;;;;;;;28.00;13.90;;;;;;;18.02;100.00;100732.34;107355;1251;60479;-92
2023/05/25 03:19:31;;;;;;;27.20;14.20;;;;;;;18.06;100.00;100730.50;106623;1251;59756;-90
2023/05/25 03:21:59;;;;;;;23.90;14.80;;;;;;;18.11;100.00;100733.97;106655;1257;71918;-91
2023/05/25 03:24:27;;;;;;;25.00;13.20;;;;;;;18.15;100.00;100735.94;107440;1251;62926;-91
2023/05/25 03:26:58;;;;;;;24.30;13.60;;;;;;;18.16;100.00;100740.58;107312;1251;72888;-90
2023/05/25 03:29:26;;;;;;;25.30;14.50;;;;;;;18.17;100.00;100738.76;106716;1257;60441;-91
2023/05/25 03:31:54;;;;;;;28.20;14.70;;;;;;;18.19;100.00;100734.09;107362;1251;59341;-91
2023/05/25 03:34:27;;;;;;;36.40;15.90;;;;;;;18.24;100.00;100733.00;108913;1252;70772;-91
2023/05/25 03:36:56;;;;;;;27.90;14.30;;;;;;;18.22;100.00;100731.00;108662;1253;62579;-91
2023/05/25 03:39:24;;;;;;;30.20;14.00;;;;;;;18.25;100.00;100738.89;108437;1252;71750;-91
2023/05/25 03:41:52;;;;;;;26.90;13.10;;;;;;;18.26;100.00;100738.98;108187;1258;60492;-90
2023/05/25 03:44:34;;;;;;;26.70;13.30;;;;;;;18.27;100.00;100736.02;109074;1251;59192;-88
2023/05/25 03:47:02;;;;;;;26.20;15.50;;;;;;;18.32;100.00;100741.96;109066;1251;73142;-92
2023/05/25 03:49:31;;;;;;;20.50;13.60;;;;;;;18.38;100.00;100746.77;109163;1251;62903;-92
2023/05/25 03:52:00;;;;;;;20.80;14.70;;;;;;;18.43;100.00;100745.91;108646;1251;74407;-91
2023/05/25 03:54:28;;;;;;;21.60;14.30;;;;;;;18.50;100.00;100737.51;108851;1251;60701;-90
2023/05/25 03:56:57;;;;;;;22.20;13.60;;;;;;;18.60;100.00;100736.22;109523;1251;60317;-92
2023/05/25 03:59:25;;;;;;;26.30;14.10;;;;;;;18.68;100.00;100734.50;109798;1253;71900;-91
2023/05/25 04:01:53;;;;;;;20.40;13.40;;;;;;;18.77;100.00;100733.44;109838;1251;62835;-90
2023/05/25 04:04:23;;;;;;;25.60;13.90;;;;;;;18.83;100.00;100732.36;109556;1253;71456;-90
2023/05/25 04:06:51;;;;;;;17.50;13.90;;;;;;;18.88;100.00;100727.98;108754;1253;61842;-90
2023/05/25 04:09:19;;;;;;;20.40;13.40;;;;;;;18.97;100.00;100731.83;107944;1253;59319;-91
2023/05/25 04:11:49;;;;;;;24.30;13.80;;;;;;;19.05;100.00;100733.39;109031;1253;71612;-90
2023/05/25 04:14:19;;;;;;;24.50;13.50;;;;;;;19.10;100.00;100730.96;109504;1253;62766;-92
2023/05/25 04:17:17;;;;;;;18.40;12.70;;;;;;;19.15;100.00;100730.48;109478;1254;71483;-93
2023/05/25 04:19:45;;;;;;;23.40;14.20;;;;;;;19.22;100.00;100729.98;109292;1255;60882;-93
2023/05/25 04:22:22;;;;;;;22.50;13.40;;;;;;;19.30;100.00;100729.23;109531;1254;58789;-94
2023/05/25 04:24:50;;;;;;;18.30;13.20;;;;;;;19.36;100.00;100731.33;109617;1254;74399;-92
2023/05/25 04:27:19;;;;;;;18.70;12.10;;;;;;;19.39;100.00;100733.64;109018;1254;60992;-93
2023/05/25 04:29:49;;;;;;;22.60;12.40;;;;;;;19.43;100.00;100741.09;109308;1255;71553;-92
2023/05/25 04:32:45;;;;;;;20.90;13.00;;;;;;;19.47;100.00;100738.27;108937;1254;60858;-93
2023/05/25 04:35:25;;;;;;;24.00;13.40;;;;;;;19.56;100.00;100745.36;108948;1254;59553;-95
2023/05/25 04:37:55;;;;;;;19.60;12.40;;;;;;;19.63;100.00;100743.96;108587;1255;71800;-92
2023/05/25 04:40:24;;;;;;;16.20;12.80;;;;;;;19.74;100.00;100748.11;108518;1255;62649;-94
2023/05/25 04:42:54;;;;;;;19.50;14.30;;;;;;;19.84;100.00;100754.39;109088;1255;73341;-96
2023/05/25 04:45:47;;;;;;;18.10;11.40;;;;;;;19.95;100.00;100753.14;109128;1254;61130;-93
2023/05/25 04:48:23;;;;;;;15.90;12.70;;;;;;;20.16;100.00;100757.66;109187;1254;59610;-93
2023/05/25 04:51:01;;;;;;;15.70;12.00;;;;;;;20.33;100.00;100755.16;109263;1254;72392;-92
2023/05/25 04:53:40;;;;;;;15.50;12.70;;;;;;;20.42;100.00;100759.75;109291;1254;62376;-92
2023/05/25 04:56:08;;;;;;;16.80;13.20;;;;;;;20.50;100.00;100763.40;109044;1254;70500;-90
2023/05/25 04:58:36;;;;;;;19.00;13.60;;;;;;;20.57;100.00;100762.91;109360;1254;59546;-92
2023/05/25 05:01:15;;;;;;;14.20;11.50;;;;;;;20.66;100.00;100767.66;109559;1254;61294;-94
2023/05/25 05:03:43;;;;;;;14.40;11.00;;;;;;;20.72;100.00;100768.98;109140;1254;73971;-93
2023/05/25 05:06:16;;;;;;;14.40;11.80;;;;;;;20.81;100.00;100762.02;107782;1254;64559;-96
2023/05/25 05:08:50;;;;;;;14.30;10.10;;;;;;;20.93;100.00;100762.41;108230;1254;71691;-89
2023/05/25 05:11:19;;;;;;;12.40;9.60;;;;;;;21.12;100.00;100765.49;107740;1254;63310;-94
2023/05/25 05:13:50;;;;;;;18.00;11.10;;;;;;;21.25;100.00;100767.75;107063;1254;60538;-94
2023/05/25 05:16:18;;;;;;;15.10;10.90;;;;;;;21.45;100.00;100769.57;107862;1254;75003;-95
2023/05/25 05:18:47;;;;;;;17.20;11.50;;;;;;;21.71;100.00;100779.03;108704;1254;62399;-91
2023/05/25 05:21:15;;;;;;;17.10;11.50;;;;;;;21.99;100.00;100779.27;107469;1254;72472;-93
2023/05/25 05:23:45;;;;;;;19.30;14.40;;;;;;;22.24;100.00;100780.81;108943;1254;60637;-91
2023/05/25 05:26:42;;;;;;;18.40;11.00;;;;;;;22.48;100.00;100782.77;109484;1254;58848;31
2023/05/25 05:33:15;;;;;;;15.30;10.50;;;;;;;23.27;100.00;100782.57;106636;1281;613379;-90
2023/05/25 05:35:51;;;;;;;10.90;8.50;;;;;;;23.70;100.00;100789.35;107266;1267;59587;-93
2023/05/25 05:38:23;;;;;;;12.80;8.80;;;;;;;23.86;100.00;100788.63;108653;1260;58855;-91
2023/05/25 05:40:51;;;;;;;13.90;8.40;;;;;;;23.88;100.00;100788.92;108665;1260;70092;-91
2023/05/25 05:43:25;;;;;;;12.40;10.40;;;;;;;23.87;100.00;100790.97;108819;1260;62631;-93
2023/05/25 05:46:09;;;;;;;12.20;10.90;;;;;;;23.75;100.00;100791.25;107327;1261;1024517;-91
2023/05/25 05:48:40;;;;;;;15.20;11.00;;;;;;;23.60;100.00;100796.89;107365;1257;59628;-95
2023/05/25 05:51:40;;;;;;;18.40;12.70;;;;;;;23.48;100.00;100794.04;108714;1257;59336;-92
2023/05/25 05:54:16;;;;;;;16.80;12.20;;;;;;;23.35;100.00;100796.98;107504;1257;70798;-91
2023/05/25 05:56:45;;;;;;;15.70;11.70;;;;;;;23.29;100.00;100792.85;107064;1257;63928;-92
2023/05/25 05:59:13;;;;;;;15.30;12.10;;;;;;;23.29;100.00;100792.82;107280;1259;73314;-91
2023/05/25 06:01:41;;;;;;;15.30;11.60;;;;;;;23.28;100.00;100794.16;106815;1257;61757;-92
2023/05/25 06:04:14;;;;;;;16.00;12.40;;;;;;;23.27;100.00;100795.13;106749;1257;59631;-93
2023/05/25 06:06:44;;;;;;;19.70;14.30;;;;;;;23.29;100.00;100800.45;107257;1258;73936;-92
2023/05/25 06:09:13;;;;;;;19.00;13.40;;;;;;;23.37;100.00;100803.30;106524;1256;63509;-92
2023/05/25 06:11:41;;;;;;;19.60;11.80;;;;;;;23.50;100.00;100803.00;106915;1264;74181;-93
2023/05/25 06:14:22;;;;;;;15.40;10.60;;;;;;;23.81;100.00;100797.95;106507;1257;59633;-92
2023/05/25 06:16:49;;;;;;;16.90;11.90;;;;;;;24.25;100.00;100802.02;106849;1257;60808;-90
2023/05/25 06:19:17;;;;;;;15.90;12.30;;;;;;;24.72;100.00;100802.80;107281;1257;72962;-94
2023/05/25 06:21:48;;;;;;;17.30;11.80;;;;;;;25.19;100.00;100801.52;106587;1262;63240;-95
2023/05/25 06:24:21;;;;;;;14.40;11.70;;;;;;;25.69;99.64;100798.29;106612;1258;72968;-94
2023/05/25 06:26:56;;;;;;;12.50;9.90;;;;;;;26.18;98.36;100800.15;106472;1257;59896;-92
2023/05/25 06:29:28;;;;;;;10.70;8.90;;;;;;;26.69;94.51;100796.08;106866;1258;60407;-92
2023/05/25 06:31:57;;;;;;;16.60;10.50;;;;;;;27.18;91.13;100793.75;108153;1257;72161;-87
2023/05/25 06:34:44;;;;;;;9.40;7.30;;;;;;;27.66;85.09;100793.95;108283;1257;65258;-91
2023/05/25 06:37:13;;;;;;;14.60;9.50;;;;;;;28.01;82.90;100791.09;108415;1257;72670;-91
2023/05/25 06:39:47;;;;;;;11.70;8.40;;;;;;;28.39;80.36;100793.46;108361;1257;60158;-92
2023/05/25 06:42:42;;;;;;;13.60;8.80;;;;;;;28.70;73.77;100796.46;108792;1255;59127;-93
2023/05/25 06:45:45;;;;;;;10.50;7.70;;;;;;;28.76;70.35;100791.11;107839;1256;74574;-94
2023/05/25 06:48:30;;;;;;;13.50;8.20;;;;;;;28.77;72.69;100792.23;107764;1256;63389;-95
2023/05/25 06:51:07;;;;;;;10.90;7.30;;;;;;;28.71;71.03;100795.05;107319;1257;71611;-93
2023/05/25 06:53:36;;;;;;;13.60;7.60;;;;;;;28.65;72.74;100801.08;107086;1261;59765;-94
2023/05/25 06:56:07;;;;;;;16.60;8.20;;;;;;;28.71;72.74;100806.52;106976;1261;59627;-93
2023/05/25 06:59:04;;;;;;;10.60;7.60;;;;;;;28.99;70.19;100806.80;109203;1256;71938;-94
2023/05/25 07:04:54;;;;;;;10.20;6.90;;;;;;;29.10;66.77;100809.21;108805;1260;71244;-94
2023/05/25 07:07:54;;;;;;;12.40;7.30;;;;;;;29.32;67.50;100806.40;108376;1254;59158;31
2023/05/25 07:10:45;;;;;;;10.30;7.40;;;;;;;29.66;61.97;100804.46;108468;1264;59408;-96
2023/05/25 07:13:29;;;;;;;11.30;7.70;;;;;;;29.60;60.64;100802.34;107627;1264;72303;-91
2023/05/25 07:16:00;;;;;;;10.20;8.60;;;;;;;29.51;62.29;100803.23;108461;1264;62892;-95
2023/05/25 07:18:49;;;;;;;13.40;8.30;;;;;;;29.44;61.30;100803.55;107989;1264;71004;-96
2023/05/25 07:21:49;;;;;;;11.30;6.90;;;;;;;29.34;63.88;100802.12;107400;1264;59702;-94
2023/05/25 07:24:31;;;;;;;13.30;7.70;;;;;;;29.45;63.81;100799.43;108659;1260;58797;-94
2023/05/25 07:27:05;;;;;;;10.10;7.50;;;;;;;29.68;63.99;100797.34;108407;1262;72115;-93
2023/05/25 07:29:36;;;;;;;12.00;7.50;;;;;;;29.92;63.41;100798.11;108187;1263;62936;-94
2023/05/25 07:32:10;;;;;;;14.40;7.00;;;;;;;30.30;61.59;100801.23;108099;1266;71875;-95
2023/05/25 07:34:45;;;;;;;12.70;7.40;;;;;;;30.61;59.40;100805.88;106860;1270;59390;-94
2023/05/25 07:37:13;;;;;;;10.70;6.80;;;;;;;30.90;57.78;100806.11;106941;1266;60120;-95
2023/05/25 07:40:23;;;;;;;10.30;6.10;;;;;;;31.32;53.97;100804.24;108291;1262;72662;-96
2023/05/25 07:43:00;;;;;;;6.70;5.20;;;;;;;31.41;50.61;100800.59;108348;1263;62547;-95
2023/05/25 07:46:05;;;;;;;8.30;4.70;;;;;;;31.48;51.04;100806.33;107580;1263;72720;-93
2023/05/25 07:48:34;;;;;;;7.00;5.00;;;;;;;31.63;49.55;100804.90;107133;1263;60704;-95
2023/05/25 07:51:14;;;;;;;9.30;5.10;;;;;;;31.61;48.00;100803.98;107862;1264;59750;-94
2023/05/25 07:53:43;;;;;;;7.50;5.40;;;;;;;31.59;48.80;100805.14;107911;1260;72246;-93
2023/05/25 07:56:39;;;;;;;7.40;5.40;;;;;;;31.58;50.60;100805.20;108622;1261;63075;-92
2023/05/25 07:59:07;;;;;;;9.30;5.10;;;;;;;31.55;51.63;100806.11;107335;1264;71353;-93
2023/05/25 08:11:49;;;;;;;8.50;5.10;;;;;;;30.47;51.75;100804.64;108263;1269;66852;-94
2023/05/25 08:15:55;;;;;;;8.00;5.10;;;;;;;30.27;52.75;100796.48;107320;1270;72135;-93
2023/05/25 08:18:30;;;;;;;8.70;5.20;;;;;;;30.22;55.73;100791.71;108017;1268;60861;-92
2023/05/25 08:20:58;;;;;;;7.90;4.40;;;;;;;30.41;54.20;100787.84;107051;1269;59303;-96
2023/05/25 08:23:57;;;;;;;9.60;4.40;;;;;;;30.56;52.03;100784.34;106251;1270;73064;-92
2023/05/25 08:26:25;;;;;;;13.50;4.70;;;;;;;30.67;51.76;100780.79;106668;1270;62554;-92
2023/05/25 08:29:14;;;;;;;7.80;4.50;;;;;;;30.78;49.08;100782.83;107136;1270;73028;-92
2023/05/25 08:31:48;;;;;;;8.40;5.10;;;;;;;30.83;48.46;100777.48;106521;1270;60443;-95
2023/05/25 08:34:29;;;;;;;5.90;4.30;;;;;;;30.87;48.21;100773.32;106977;1268;60153;-94
2023/05/25 08:37:00;;;;;;;8.00;4.60;;;;;;;30.89;49.35;100768.49;107586;1269;72695;-92
2023/05/25 08:39:29;;;;;;;6.00;4.60;;;;;;;30.95;47.55;100765.45;108094;1268;62822;-93
2023/05/25 08:42:23;;;;;;;7.60;4.30;;;;;;;31.03;46.38;100768.96;107625;1269;72640;-94
2023/05/25 08:45:21;;;;;;;5.50;4.50;;;;;;;31.12;46.55;100762.07;107079;1276;60325;-93
2023/05/25 08:48:35;;;;;;;8.50;4.40;;;;;;;31.46;45.43;100764.67;107484;1272;59554;-93
2023/05/25 08:51:38;;;;;;;9.80;4.90;;;;;;;31.75;43.66;100761.27;107706;1273;74988;-93
2023/05/25 08:54:36;;;;;;;7.40;4.50;;;;;;;31.96;42.31;100749.77;108280;1264;61965;-90
2023/05/25 09:01:15;;;;;;;5.90;3.90;;;;;;;32.59;39.83;100733.47;108305;1266;59361;-96
2023/05/25 09:04:19;;;;;;;8.00;4.80;;;;;;;32.44;40.19;100727.48;108319;1270;60393;-95
2023/05/25 09:07:03;;;;;;;8.80;4.50;;;;;;;32.19;40.33;100737.51;107566;1269;73681;-92
2023/05/25 09:13:26;;;;;;;8.20;4.90;;;;;;;31.28;41.67;100750.35;107446;1276;72509;-94
2023/05/25 09:16:01;;;;;;;9.40;4.60;;;;;;;30.83;42.80;100750.45;106522;1272;59307;-95
2023/05/25 09:19:12;;;;;;;7.30;4.60;;;;;;;30.48;44.01;100745.64;108130;1271;59151;-93
2023/05/25 09:22:10;;;;;;;9.50;4.40;;;;;;;30.14;45.35;100743.96;106505;1271;71798;-91
2023/05/25 09:24:44;;;;;;;9.50;4.40;;;;;;;29.79;45.63;100738.62;105772;1272;65308;-95
2023/05/25 09:27:28;;;;;;;7.20;3.70;;;;;;;29.53;47.25;100740.73;106285;1273;71927;-93
2023/05/25 09:29:59;;;;;;;6.90;4.20;;;;;;;29.34;47.28;100740.14;106760;1273;59672;-91
2023/05/25 09:32:30;;;;;;;6.50;3.60;;;;;;;29.12;47.70;100731.84;107864;1272;59685;-92
2023/05/25 09:38:53;;;;;;;5.70;3.90;;;;;;;29.05;48.66;100726.14;108134;1265;63691;-93
2023/05/25 09:42:05;;;;;;;9.80;4.60;;;;;;;29.29;48.07;100728.60;108397;1261;72040;-93
2023/05/25 09:44:44;;;;;;;10.40;4.50;;;;;;;29.67;47.07;100728.55;107915;1269;59778;-93
2023/05/25 09:47:37;;;;;;;6.30;4.10;;;;;;;30.16;46.73;100729.77;107047;1273;59437;-95
2023/05/25 09:50:12;;;;;;;6.20;3.90;;;;;;;30.64;46.60;100728.50;107537;1270;72895;-95
2023/05/25 09:53:03;;;;;;;10.10;5.30;;;;;;;31.01;43.93;100715.05;106997;1270;62909;-93
2023/05/25 09:55:32;;;;;;;5.50;4.50;;;;;;;31.08;41.92;100709.93;106837;1270;73251;-95
2023/05/25 10:05:48;;;;;;;8.70;5.50;;;;;;;30.94;41.33;100728.69;108567;1269;71823;-92
2023/05/25 10:08:17;;;;;;;12.20;5.50;;;;;;;30.71;40.99;100726.70;108361;1270;65224;-92
2023/05/25 10:10:54;;;;;;;10.40;6.20;;;;;;;30.46;42.67;100728.61;107375;1269;73166;-93
2023/05/25 10:13:28;;;;;;;12.30;5.10;;;;;;;30.24;43.87;100727.48;107268;1269;59397;-93
2023/05/25 10:15:56;;;;;;;7.30;5.00;;;;;;;29.99;45.81;100730.09;106488;1269;60400;-91
2023/05/25 10:18:27;;;;;;;5.70;4.60;;;;;;;29.73;47.60;100725.36;106590;1269;73870;-92
2023/05/25 10:21:01;;;;;;;7.50;4.40;;;;;;;29.49;48.77;100725.16;106931;1270;64867;-92
2023/05/25 10:23:34;;;;;;;7.00;4.60;;;;;;;29.25;48.61;100722.89;106807;1270;72025;-91
2023/05/25 10:26:03;;;;;;;6.50;5.10;;;;;;;29.01;49.11;100720.64;106772;1275;60564;-92
2023/05/25 10:28:44;;;;;;;8.10;4.90;;;;;;;28.76;51.05;100722.05;106130;1270;60450;-91
2023/05/25 10:31:37;;;;;;;6.50;4.90;;;;;;;28.54;52.85;100711.94;107492;1269;73949;-94
2023/05/25 10:34:07;;;;;;;11.10;4.80;;;;;;;28.25;52.76;100704.30;107169;1270;64584;-95
2023/05/25 10:36:39;;;;;;;6.90;4.40;;;;;;;28.06;55.37;100705.33;106413;1269;72936;-94
2023/05/25 10:39:23;;;;;;;7.50;4.40;;;;;;;27.86;59.20;100704.43;106506;1268;60440;-95
2023/05/25 10:42:13;;;;;;;10.10;5.10;;;;;;;27.61;62.31;100703.43;107230;1272;60657;-94
2023/05/25 10:44:41;;;;;;;9.70;5.60;;;;;;;27.43;65.63;100704.78;108021;1270;73280;-91
2023/05/25 10:47:09;;;;;;;8.60;5.30;;;;;;;27.28;67.64;100704.10;106993;1269;62072;-93
2023/05/25 10:49:56;;;;;;;9.40;5.80;;;;;;;27.09;69.29;100698.79;106946;1270;71237;-90
2023/05/25 10:52:32;;;;;;;35.10;25.10;;;;;;;26.85;69.40;100702.08;106257;1269;60799;-91
2023/05/25 10:55:02;;;;;;;14.50;7.30;;;;;;;26.52;73.24;100706.75;106497;1269;60499;-92
2023/05/25 10:57:30;;;;;;;10.80;6.40;;;;;;;26.22;76.19;100717.64;106974;1269;72738;-90
2023/05/25 11:00:07;;;;;;;10.80;5.90;;;;;;;25.90;78.87;100720.45;108253;1269;62720;-90
2023/05/25 11:02:52;;;;;;;9.30;6.20;;;;;;;25.56;81.70;100718.35;108116;1270;71456;-89
2023/05/25 11:05:39;;;;;;;7.40;6.20;;;;;;;25.27;83.84;100719.18;107671;1269;60547;-89
2023/05/25 11:08:20;;;;;;;8.50;5.60;;;;;;;25.11;84.68;100719.84;107564;1270;59450;-90
2023/05/25 11:11:45;;;;;;;9.50;7.30;;;;;;;24.98;85.22;100734.60;107830;1263;74119;31
2023/05/25 11:14:37;;;;;;;11.40;5.40;;;;;;;24.75;84.30;100740.02;106275;1272;64087;-91
2023/05/25 11:17:09;;;;;;;7.70;5.80;;;;;;;24.54;86.59;100733.58;106125;1273;73992;-90
2023/05/25 11:19:55;;;;;;;11.40;6.30;;;;;;;24.39;89.72;100731.92;106167;1279;59420;-91
2023/05/25 11:22:36;;;;;;;7.40;5.10;;;;;;;24.21;91.03;100730.61;105518;1272;60551;-92
2023/05/25 11:25:34;;;;;;;7.60;4.80;;;;;;;24.04;92.85;100731.90;106288;1272;72749;-87
2023/05/25 11:28:23;;;;;;;7.80;5.10;;;;;;;23.84;95.11;100734.17;105608;1274;66185;-90
2023/05/25 11:30:53;;;;;;;10.60;4.30;;;;;;;23.69;94.94;100747.64;105923;1274;72716;-90
2023/05/25 11:33:21;;;;;;;7.70;4.60;;;;;;;23.55;96.86;100757.98;106100;1274;60562;-93
2023/05/25 11:35:54;;;;;;;12.40;6.60;;;;;;;23.41;98.85;100775.92;106223;1276;60186;-92
2023/05/25 11:38:23;;;;;;;6.90;3.80;;;;;;;23.27;99.87;100778.98;106218;1278;74169;-89
2023/05/25 11:40:52;;;;;;;7.30;4.30;;;;;;;23.16;100.00;100783.25;105843;1274;63704;-90
2023/05/25 11:43:23;;;;;;;6.60;3.80;;;;;;;23.06;100.00;100782.41;106069;1273;71688;-92
2023/05/25 11:45:55;;;;;;;8.40;4.60;;;;;;;22.99;100.00;100782.02;105935;1273;60590;-90
2023/05/25 11:48:25;;;;;;;8.00;5.10;;;;;;;22.95;100.00;100777.40;106784;1278;60958;-90
2023/05/25 11:51:06;;;;;;;9.10;5.20;;;;;;;22.92;100.00;100776.67;106279;1273;73146;-91
2023/05/25 11:53:33;;;;;;;6.40;4.00;;;;;;;22.86;100.00;100771.66;105734;1279;62500;-91
2023/05/25 11:56:00;;;;;;;6.60;3.90;;;;;;;22.83;100.00;100767.25;105378;1273;73087;-90
2023/05/25 11:58:38;;;;;;;8.00;5.40;;;;;;;22.79;100.00;100758.07;105780;1276;60584;-93
2023/05/25 12:01:17;;;;;;;6.00;4.20;;;;;;;22.77;100.00;100750.75;105682;1279;61251;-92
2023/05/25 12:03:46;;;;;;;6.60;4.90;;;;;;;22.77;100.00;100746.31;106002;1273;73205;-94
2023/05/25 12:06:32;;;;;;;6.70;4.50;;;;;;;22.75;100.00;100742.39;106681;1276;64743;-90
2023/05/25 12:09:09;;;;;;;7.90;5.10;;;;;;;22.73;100.00;100736.91;107312;1272;70329;-93
2023/05/25 12:11:37;;;;;;;7.90;5.10;;;;;;;22.67;100.00;100731.27;108126;1273;61964;-93
2023/05/25 12:14:06;;;;;;;7.40;4.70;;;;;;;22.67;100.00;100729.33;107885;1273;59115;-91
2023/05/25 12:16:35;;;;;;;10.30;4.40;;;;;;;22.67;100.00;100728.59;107422;1274;72680;-89
2023/05/25 12:19:07;;;;;;;10.20;4.40;;;;;;;22.71;100.00;100727.19;106332;1277;62762;-90